sensor_id;sensor_type;location;lat;lon;timestamp;P1;durP1;ratioP1;P2;durP2;ratioP2
16967;SDS011;64862;54.398;10.126;2023-07-28T00:07:11;4.13;;;2.10;;
16967;SDS011;64862;54.398;10.126;2023-07-28T00:17:13;4.93;;;2.42;;
16967;SDS011;64862;54.398;10.126;2023-07-28T00:27:17;3.38;;;2.10;;
16967;SDS011;64862;54.398;10.126;2023-07-28T00:37:19;3.70;;;2.13;;
16967;SDS011;64862;54.398;10.126;2023-07-28T00:47:23;3.38;;;2.10;;
16967;SDS011;64862;54.398;10.126;2023-07-28T00:57:25;3.45;;;1.95;;
16967;SDS011;64862;54.398;10.126;2023-07-28T01:07:33;3.60;;;1.98;;
16967;SDS011;64862;54.398;10.126;2023-07-28T01:17:44;3.75;;;2.17;;
16967;SDS011;64862;54.398;10.126;2023-07-28T01:27:47;3.70;;;2.60;;
16967;SDS011;64862;54.398;10.126;2023-07-28T01:37:51;4.50;;;3.38;;
16967;SDS011;64862;54.398;10.126;2023-07-28T01:47:55;4.30;;;3.47;;
16967;SDS011;64862;54.398;10.126;2023-07-28T01:57:57;5.75;;;3.72;;
16967;SDS011;64862;54.398;10.126;2023-07-28T02:08:02;5.38;;;3.65;;
16967;SDS011;64862;54.398;10.126;2023-07-28T02:18:05;5.50;;;3.00;;
16967;SDS011;64862;54.398;10.126;2023-07-28T02:28:09;4.50;;;3.33;;
16967;SDS011;64862;54.398;10.126;2023-07-28T02:38:11;4.55;;;3.40;;
16967;SDS011;64862;54.398;10.126;2023-07-28T02:48:15;5.88;;;4.10;;
16967;SDS011;64862;54.398;10.126;2023-07-28T02:58:17;7.40;;;3.75;;
16967;SDS011;64862;54.398;10.126;2023-07-28T03:08:21;6.38;;;4.50;;
16967;SDS011;64862;54.398;10.126;2023-07-28T03:18:23;6.43;;;4.22;;
16967;SDS011;64862;54.398;10.126;2023-07-28T03:28:27;6.38;;;4.57;;
16967;SDS011;64862;54.398;10.126;2023-07-28T03:38:28;7.75;;;4.13;;
16967;SDS011;64862;54.398;10.126;2023-07-28T03:48:32;5.15;;;3.70;;
16967;SDS011;64862;54.398;10.126;2023-07-28T03:58:34;6.15;;;4.78;;
16967;SDS011;64862;54.398;10.126;2023-07-28T04:08:38;6.50;;;4.63;;
16967;SDS011;64862;54.398;10.126;2023-07-28T04:18:40;6.85;;;4.75;;
16967;SDS011;64862;54.398;10.126;2023-07-28T04:28:43;6.80;;;5.00;;
16967;SDS011;64862;54.398;10.126;2023-07-28T04:38:46;8.98;;;5.40;;
16967;SDS011;64862;54.398;10.126;2023-07-28T04:48:49;8.60;;;4.97;;
16967;SDS011;64862;54.398;10.126;2023-07-28T04:59:10;7.32;;;5.45;;
16967;SDS011;64862;54.398;10.126;2023-07-28T05:09:13;6.45;;;4.80;;
16967;SDS011;64862;54.398;10.126;2023-07-28T05:19:16;8.05;;;5.28;;
16967;SDS011;64862;54.398;10.126;2023-07-28T05:29:58;9.85;;;5.15;;
16967;SDS011;64862;54.398;10.126;2023-07-28T05:40:00;7.55;;;5.10;;
16967;SDS011;64862;54.398;10.126;2023-07-28T05:50:08;8.35;;;5.72;;
16967;SDS011;64862;54.398;10.126;2023-07-28T06:00:11;7.78;;;5.07;;
16967;SDS011;64862;54.398;10.126;2023-07-28T06:10:15;7.20;;;4.00;;
16967;SDS011;64862;54.398;10.126;2023-07-28T06:20:18;8.15;;;4.53;;
16967;SDS011;64862;54.398;10.126;2023-07-28T06:30:21;6.25;;;4.22;;
16967;SDS011;64862;54.398;10.126;2023-07-28T06:40:24;8.23;;;4.10;;
16967;SDS011;64862;54.398;10.126;2023-07-28T06:50:27;9.25;;;1.80;;
16967;SDS011;64862;54.398;10.126;2023-07-28T07:00:29;7.38;;;3.30;;
16967;SDS011;64862;54.398;10.126;2023-07-28T07:10:33;8.13;;;3.70;;
16967;SDS011;64862;54.398;10.126;2023-07-28T07:20:35;7.22;;;3.47;;
16967;SDS011;64862;54.398;10.126;2023-07-28T07:30:39;5.78;;;3.40;;
16967;SDS011;64862;54.398;10.126;2023-07-28T07:40:41;6.25;;;3.47;;
16967;SDS011;64862;54.398;10.126;2023-07-28T07:50:45;7.15;;;4.00;;
16967;SDS011;64862;54.398;10.126;2023-07-28T08:00:47;7.65;;;3.78;;
16967;SDS011;64862;54.398;10.126;2023-07-28T08:10:51;5.57;;;3.05;;
16967;SDS011;64862;54.398;10.126;2023-07-28T08:20:53;7.57;;;3.20;;
16967;SDS011;64862;54.398;10.126;2023-07-28T08:30:57;6.18;;;2.67;;
16967;SDS011;64862;54.398;10.126;2023-07-28T08:40:59;5.22;;;2.70;;
16967;SDS011;64862;54.398;10.126;2023-07-28T08:51:03;6.90;;;3.38;;
16967;SDS011;64862;54.398;10.126;2023-07-28T09:01:05;6.55;;;3.40;;
16967;SDS011;64862;54.398;10.126;2023-07-28T09:11:09;8.52;;;3.28;;
16967;SDS011;64862;54.398;10.126;2023-07-28T09:21:17;6.00;;;3.60;;
16967;SDS011;64862;54.398;10.126;2023-07-28T09:31:29;5.10;;;2.95;;
16967;SDS011;64862;54.398;10.126;2023-07-28T09:41:33;5.53;;;3.45;;
16967;SDS011;64862;54.398;10.126;2023-07-28T09:51:38;8.75;;;3.67;;
16967;SDS011;64862;54.398;10.126;2023-07-28T10:01:42;9.27;;;3.80;;
16967;SDS011;64862;54.398;10.126;2023-07-28T10:11:47;7.45;;;3.63;;
16967;SDS011;64862;54.398;10.126;2023-07-28T10:21:49;5.35;;;3.10;;
16967;SDS011;64862;54.398;10.126;2023-07-28T10:32:06;5.25;;;2.65;;
16967;SDS011;64862;54.398;10.126;2023-07-28T10:42:08;6.25;;;2.92;;
16967;SDS011;64862;54.398;10.126;2023-07-28T10:52:12;5.53;;;2.65;;
16967;SDS011;64862;54.398;10.126;2023-07-28T11:02:14;3.08;;;2.00;;
16967;SDS011;64862;54.398;10.126;2023-07-28T11:12:19;4.30;;;2.10;;
16967;SDS011;64862;54.398;10.126;2023-07-28T11:22:21;3.33;;;1.80;;
16967;SDS011;64862;54.398;10.126;2023-07-28T11:32:25;4.28;;;1.90;;
16967;SDS011;64862;54.398;10.126;2023-07-28T11:42:27;2.97;;;1.70;;
16967;SDS011;64862;54.398;10.126;2023-07-28T11:52:32;2.95;;;1.70;;
16967;SDS011;64862;54.398;10.126;2023-07-28T12:02:35;2.90;;;1.60;;
16967;SDS011;64862;54.398;10.126;2023-07-28T12:12:42;3.05;;;1.60;;
16967;SDS011;64862;54.398;10.126;2023-07-28T12:22:47;2.90;;;1.73;;
16967;SDS011;64862;54.398;10.126;2023-07-28T12:32:51;3.55;;;1.60;;
16967;SDS011;64862;54.398;10.126;2023-07-28T12:42:53;2.95;;;1.60;;
16967;SDS011;64862;54.398;10.126;2023-07-28T12:52:56;2.90;;;1.58;;
16967;SDS011;64862;54.398;10.126;2023-07-28T13:02:58;2.00;;;1.17;;
16967;SDS011;64862;54.398;10.126;2023-07-28T13:13:02;3.05;;;1.35;;
16967;SDS011;64862;54.398;10.126;2023-07-28T13:23:05;1.90;;;1.10;;
16967;SDS011;64862;54.398;10.126;2023-07-28T13:33:08;2.72;;;1.50;;
16967;SDS011;64862;54.398;10.126;2023-07-28T13:43:10;2.33;;;1.33;;
16967;SDS011;64862;54.398;10.126;2023-07-28T13:53:14;1.92;;;1.20;;
16967;SDS011;64862;54.398;10.126;2023-07-28T14:03:16;1.70;;;0.90;;
16967;SDS011;64862;54.398;10.126;2023-07-28T14:13:20;1.88;;;1.10;;
16967;SDS011;64862;54.398;10.126;2023-07-28T14:23:23;1.55;;;1.00;;
16967;SDS011;64862;54.398;10.126;2023-07-28T14:33:28;1.35;;;0.85;;
16967;SDS011;64862;54.398;10.126;2023-07-28T14:43:30;1.30;;;0.80;;
16967;SDS011;64862;54.398;10.126;2023-07-28T14:53:34;2.20;;;0.90;;
16967;SDS011;64862;54.398;10.126;2023-07-28T15:03:37;1.60;;;0.80;;
16967;SDS011;64862;54.398;10.126;2023-07-28T15:13:41;1.17;;;0.80;;
16967;SDS011;64862;54.398;10.126;2023-07-28T15:23:45;1.15;;;0.80;;
16967;SDS011;64862;54.398;10.126;2023-07-28T15:33:48;1.85;;;0.73;;
16967;SDS011;64862;54.398;10.126;2023-07-28T15:43:50;1.88;;;0.80;;
16967;SDS011;64862;54.398;10.126;2023-07-28T15:53:54;1.10;;;0.63;;
16967;SDS011;64862;54.398;10.126;2023-07-28T16:03:56;1.23;;;0.60;;
16967;SDS011;64862;54.398;10.126;2023-07-28T16:13:59;2.17;;;0.80;;
16967;SDS011;64862;54.398;10.126;2023-07-28T16:24:01;2.13;;;0.93;;
16967;SDS011;64862;54.398;10.126;2023-07-28T16:34:05;2.10;;;0.90;;
16967;SDS011;64862;54.398;10.126;2023-07-28T16:44:07;1.45;;;0.90;;
16967;SDS011;64862;54.398;10.126;2023-07-28T16:54:11;2.17;;;1.10;;
16967;SDS011;64862;54.398;10.126;2023-07-28T17:04:13;2.13;;;1.50;;
16967;SDS011;64862;54.398;10.126;2023-07-28T17:14:17;2.67;;;1.60;;
16967;SDS011;64862;54.398;10.126;2023-07-28T17:24:19;3.25;;;1.58;;
16967;SDS011;64862;54.398;10.126;2023-07-28T17:34:25;2.55;;;1.30;;
16967;SDS011;64862;54.398;10.126;2023-07-28T17:44:27;2.30;;;1.50;;
16967;SDS011;64862;54.398;10.126;2023-07-28T17:54:31;3.10;;;1.50;;
16967;SDS011;64862;54.398;10.126;2023-07-28T18:04:33;2.58;;;1.58;;
16967;SDS011;64862;54.398;10.126;2023-07-28T18:14:37;2.30;;;1.45;;
16967;SDS011;64862;54.398;10.126;2023-07-28T18:24:39;2.47;;;1.52;;
16967;SDS011;64862;54.398;10.126;2023-07-28T18:34:43;5.25;;;1.58;;
16967;SDS011;64862;54.398;10.126;2023-07-28T18:44:45;2.50;;;1.40;;
16967;SDS011;64862;54.398;10.126;2023-07-28T18:54:49;1.90;;;1.30;;
16967;SDS011;64862;54.398;10.126;2023-07-28T19:04:51;2.20;;;1.30;;
16967;SDS011;64862;54.398;10.126;2023-07-28T19:14:55;2.97;;;1.38;;
16967;SDS011;64862;54.398;10.126;2023-07-28T19:24:57;3.20;;;1.70;;
16967;SDS011;64862;54.398;10.126;2023-07-28T19:35:00;3.17;;;1.67;;
16967;SDS011;64862;54.398;10.126;2023-07-28T19:45:03;2.63;;;1.67;;
16967;SDS011;64862;54.398;10.126;2023-07-28T19:55:10;2.80;;;1.60;;
16967;SDS011;64862;54.398;10.126;2023-07-28T20:05:12;2.60;;;1.60;;
16967;SDS011;64862;54.398;10.126;2023-07-28T20:15:18;4.25;;;1.67;;
16967;SDS011;64862;54.398;10.126;2023-07-28T20:25:20;3.25;;;1.90;;
16967;SDS011;64862;54.398;10.126;2023-07-28T20:35:23;4.18;;;2.00;;
16967;SDS011;64862;54.398;10.126;2023-07-28T20:45:25;2.17;;;1.88;;
16967;SDS011;64862;54.398;10.126;2023-07-28T20:55:29;2.47;;;1.90;;
16967;SDS011;64862;54.398;10.126;2023-07-28T21:05:31;3.13;;;2.20;;
16967;SDS011;64862;54.398;10.126;2023-07-28T21:15:35;3.25;;;2.20;;
16967;SDS011;64862;54.398;10.126;2023-07-28T21:25:37;3.80;;;2.13;;
16967;SDS011;64862;54.398;10.126;2023-07-28T21:35:42;3.90;;;2.50;;
16967;SDS011;64862;54.398;10.126;2023-07-28T21:45:44;4.60;;;2.65;;
16967;SDS011;64862;54.398;10.126;2023-07-28T21:55:48;4.55;;;3.05;;
16967;SDS011;64862;54.398;10.126;2023-07-28T22:05:50;5.32;;;2.83;;
16967;SDS011;64862;54.398;10.126;2023-07-28T22:15:53;4.88;;;2.90;;
16967;SDS011;64862;54.398;10.126;2023-07-28T22:25:56;4.00;;;3.10;;
16967;SDS011;64862;54.398;10.126;2023-07-28T22:36:00;4.78;;;3.35;;
16967;SDS011;64862;54.398;10.126;2023-07-28T22:46:02;6.10;;;3.75;;
16967;SDS011;64862;54.398;10.126;2023-07-28T22:56:05;6.22;;;4.10;;
16967;SDS011;64862;54.398;10.126;2023-07-28T23:06:07;5.18;;;3.40;;
16967;SDS011;64862;54.398;10.126;2023-07-28T23:16:11;4.53;;;3.75;;
16967;SDS011;64862;54.398;10.126;2023-07-28T23:26:13;6.05;;;4.30;;
16967;SDS011;64862;54.398;10.126;2023-07-28T23:36:17;8.88;;;5.45;;
16967;SDS011;64862;54.398;10.126;2023-07-28T23:46:19;7.80;;;4.75;;
16967;SDS011;64862;54.398;10.126;2023-07-28T23:56:23;7.68;;;5.47;;
